createdAt,value
2019-06-20T00:01:41.813Z,31.97
2019-06-20T00:04:12.434Z,26.50
2019-06-20T00:06:42.988Z,31.82
2019-06-20T00:09:13.604Z,31.40
2019-06-20T00:11:44.262Z,30.85
2019-06-20T00:14:15.005Z,27.85
2019-06-20T00:16:45.585Z,26.23
2019-06-20T00:19:16.050Z,28.75
2019-06-20T00:21:46.867Z,28.52
2019-06-20T00:24:17.519Z,30.60
2019-06-20T00:26:48.759Z,32.58
2019-06-20T00:29:19.626Z,30.35
2019-06-20T00:31:50.163Z,27.05
2019-06-20T00:34:20.817Z,29.67
2019-06-20T00:36:52.863Z,26.17
2019-06-20T00:39:24.497Z,29.82
2019-06-20T00:41:55.435Z,24.60
2019-06-20T00:44:25.934Z,25.15
2019-06-20T00:46:56.389Z,32.50
2019-06-20T00:49:26.853Z,28.83
2019-06-20T00:51:57.732Z,29.10
2019-06-20T00:54:28.489Z,29.65
2019-06-20T00:56:59.045Z,24.45
2019-06-20T00:59:29.707Z,29.60
2019-06-20T01:02:00.450Z,27.25
2019-06-20T01:04:30.999Z,22.75
2019-06-20T01:07:01.831Z,28.75
2019-06-20T01:09:32.336Z,28.38
2019-06-20T01:12:02.834Z,29.65
2019-06-20T01:14:33.406Z,26.23
2019-06-20T01:17:04.051Z,25.25
2019-06-20T01:19:34.714Z,22.45
2019-06-20T01:22:05.451Z,22.48
2019-06-20T01:24:36.073Z,28.32
2019-06-20T01:27:06.721Z,23.20
2019-06-20T01:29:37.374Z,25.82
2019-06-20T01:32:07.949Z,25.02
2019-06-20T01:34:38.605Z,21.97
2019-06-20T01:37:09.715Z,28.40
2019-06-20T01:39:40.311Z,21.52
2019-06-20T01:42:10.900Z,22.95
2019-06-20T01:44:41.613Z,23.57
2019-06-20T01:47:12.358Z,22.17
2019-06-20T01:49:43.098Z,21.57
2019-06-20T01:52:13.565Z,26.25
2019-06-20T01:54:44.841Z,23.52
2019-06-20T01:57:15.707Z,18.07
2019-06-20T01:59:47.099Z,22.32
2019-06-20T02:02:17.821Z,20.37
2019-06-20T02:04:49.498Z,22.32
2019-06-20T02:07:20.227Z,20.97
2019-06-20T02:09:50.801Z,18.75
2019-06-20T02:12:21.520Z,18.45
2019-06-20T02:14:52.323Z,20.55
2019-06-20T02:17:23.037Z,18.92
2019-06-20T02:19:53.973Z,21.85
2019-06-20T02:22:24.526Z,20.90
2019-06-20T02:24:55.168Z,22.02
2019-06-20T02:27:25.673Z,19.37
2019-06-20T02:29:56.342Z,16.75
2019-06-20T02:32:27.890Z,17.75
2019-06-20T02:34:58.422Z,23.65
2019-06-20T02:37:29.358Z,17.17
2019-06-20T02:39:59.826Z,15.90
2019-06-20T02:42:30.805Z,13.78
2019-06-20T02:45:01.436Z,14.58
2019-06-20T02:47:31.925Z,20.10
2019-06-20T02:50:03.905Z,16.75
2019-06-20T02:52:34.885Z,17.95
2019-06-20T02:55:05.806Z,18.00
2019-06-20T02:57:36.499Z,19.17
2019-06-20T03:00:07.658Z,17.60
2019-06-20T03:02:38.297Z,18.23
2019-06-20T03:05:09.234Z,17.48
2019-06-20T03:07:39.896Z,18.42
2019-06-20T03:10:10.612Z,22.93
2019-06-20T03:12:41.200Z,17.52
2019-06-20T03:15:12.352Z,16.52
2019-06-20T03:17:43.192Z,19.12
2019-06-20T03:20:13.976Z,17.07
2019-06-20T03:22:44.615Z,16.30
2019-06-20T03:25:16.332Z,17.00
2019-06-20T03:27:47.362Z,15.85
2019-06-20T03:30:18.022Z,13.85
2019-06-20T03:32:48.781Z,15.43
2019-06-20T03:35:19.533Z,15.60
2019-06-20T03:37:51.167Z,16.40
2019-06-20T03:40:21.949Z,17.57
2019-06-20T03:42:52.711Z,15.13
2019-06-20T03:45:23.462Z,18.00
2019-06-20T03:47:54.007Z,13.10
2019-06-20T03:50:25.475Z,14.13
2019-06-20T03:53:02.321Z,15.55
2019-06-20T03:55:33.772Z,11.20
2019-06-20T03:58:05.613Z,13.80
2019-06-20T04:00:36.870Z,14.53
2019-06-20T04:03:07.596Z,14.10
2019-06-20T04:05:38.227Z,13.72
2019-06-20T04:08:09.961Z,17.45
2019-06-20T04:10:40.709Z,13.98
2019-06-20T04:13:11.222Z,16.48
2019-06-20T04:15:41.755Z,14.33
2019-06-20T04:18:12.295Z,14.35
2019-06-20T04:20:42.928Z,14.18
2019-06-20T04:23:14.764Z,15.05
2019-06-20T04:25:45.653Z,17.32
2019-06-20T04:28:16.136Z,14.68
2019-06-20T04:30:46.745Z,16.32
2019-06-20T04:33:17.475Z,17.05
2019-06-20T04:35:48.138Z,17.90
2019-06-20T04:38:19.555Z,16.82
2019-06-20T04:40:50.923Z,19.70
2019-06-20T04:43:21.536Z,18.20
2019-06-20T04:46:12.163Z,16.87
2019-06-20T04:48:43.923Z,21.23
2019-06-20T04:51:14.564Z,15.98
2019-06-20T04:53:45.188Z,19.32
2019-06-20T04:56:16.883Z,17.10
2019-06-20T04:58:48.618Z,17.10
2019-06-20T05:01:19.335Z,14.80
2019-06-20T05:03:49.970Z,17.57
2019-06-20T05:06:20.606Z,15.35
2019-06-20T05:08:51.253Z,16.10
2019-06-20T05:11:21.877Z,16.77
2019-06-20T05:13:52.409Z,15.20
2019-06-20T05:16:23.236Z,15.13
2019-06-20T05:18:53.818Z,15.70
2019-06-20T05:21:24.437Z,14.43
2019-06-20T05:23:56.058Z,14.50
2019-06-20T05:26:26.781Z,13.43
2019-06-20T05:28:57.442Z,13.25
2019-06-20T05:31:29.312Z,12.95
2019-06-20T05:33:59.786Z,14.78
2019-06-20T05:36:31.181Z,12.15
2019-06-20T05:39:02.382Z,13.53
2019-06-20T05:41:33.214Z,13.43
2019-06-20T05:44:04.129Z,12.78
2019-06-20T05:46:34.793Z,11.05
2019-06-20T05:49:05.311Z,11.22
2019-06-20T05:51:39.649Z,13.78
2019-06-20T05:54:08.262Z,12.35
2019-06-20T05:56:38.915Z,13.50
2019-06-20T05:59:10.566Z,11.12
2019-06-20T06:01:41.135Z,11.38
2019-06-20T06:04:11.808Z,9.48
2019-06-20T06:06:42.968Z,10.88
2019-06-20T06:09:13.651Z,9.83
2019-06-20T06:11:44.385Z,12.58
2019-06-20T06:14:14.983Z,10.98
2019-06-20T06:16:49.794Z,12.00
2019-06-20T06:19:20.507Z,12.00
2019-06-20T06:21:51.420Z,14.80
2019-06-20T06:24:22.006Z,14.95
2019-06-20T06:26:52.659Z,16.90
2019-06-20T06:29:23.336Z,14.35
2019-06-20T06:32:10.266Z,15.45
2019-06-20T06:34:49.634Z,16.37
2019-06-20T06:37:22.105Z,16.55
2019-06-20T06:39:53.849Z,16.25
2019-06-20T06:42:24.411Z,17.75
2019-06-20T06:44:57.768Z,15.63
2019-06-20T06:47:31.905Z,14.53
2019-06-20T06:50:23.808Z,15.43
2019-06-20T06:53:04.219Z,15.48
2019-06-20T06:55:35.355Z,15.03
2019-06-20T06:58:06.109Z,13.28
2019-06-20T07:00:36.780Z,15.48
2019-06-20T07:03:07.486Z,14.58
2019-06-20T07:05:38.170Z,14.80
2019-06-20T07:08:08.796Z,13.20
2019-06-20T07:10:40.259Z,12.37
2019-06-20T07:13:10.739Z,11.12
2019-06-20T07:15:42.343Z,14.60
2019-06-20T07:18:13.324Z,14.10
2019-06-20T07:20:43.826Z,19.30
2019-06-20T07:23:14.495Z,18.05
2019-06-20T07:25:45.009Z,20.90
2019-06-20T07:28:15.808Z,24.60
2019-06-20T07:30:48.722Z,25.65
2019-06-20T07:33:22.116Z,26.45
2019-06-20T07:35:55.303Z,30.65
2019-06-20T07:38:26.110Z,37.23
2019-06-20T07:40:56.600Z,35.30
2019-06-20T07:43:27.215Z,38.88
2019-06-20T07:46:02.665Z,39.48
2019-06-20T07:48:31.137Z,36.20
2019-06-20T07:51:01.826Z,40.80
2019-06-20T07:53:32.290Z,39.53
2019-06-20T07:56:09.310Z,40.35
2019-06-20T07:58:41.936Z,44.55
2019-06-20T08:01:15.582Z,39.20
2019-06-20T08:03:48.791Z,36.23
2019-06-20T08:06:22.002Z,38.25
2019-06-20T08:08:55.896Z,41.40
2019-06-20T08:11:29.810Z,39.60
2019-06-20T08:14:03.982Z,37.28
2019-06-20T08:16:38.979Z,39.25
2019-06-20T08:19:12.164Z,38.65
2019-06-20T08:21:45.344Z,44.33
2019-06-20T08:24:18.476Z,43.63
2019-06-20T08:26:51.870Z,40.45
2019-06-20T08:29:24.491Z,43.33
2019-06-20T08:31:59.411Z,38.60
2019-06-20T08:34:33.336Z,45.17
2019-06-20T08:37:07.348Z,47.27
2019-06-20T08:39:41.395Z,54.03
2019-06-20T08:42:14.893Z,51.42
2019-06-20T08:44:48.595Z,42.75
2019-06-20T08:47:21.988Z,39.00
2019-06-20T08:49:56.820Z,39.70
2019-06-20T08:52:31.025Z,34.08
2019-06-20T08:55:05.449Z,25.32
2019-06-20T08:57:38.906Z,26.65
2019-06-20T09:00:13.272Z,24.07
2019-06-20T09:02:46.686Z,22.02
2019-06-20T09:05:21.249Z,20.57
2019-06-20T09:07:56.560Z,21.42
2019-06-20T09:10:36.080Z,22.82
2019-06-20T09:13:13.448Z,23.38
2019-06-20T09:15:47.003Z,23.52
2019-06-20T09:18:20.594Z,21.05
2019-06-20T09:20:54.248Z,22.60
2019-06-20T09:23:27.958Z,19.05
2019-06-20T09:26:02.399Z,17.23
2019-06-20T09:28:36.871Z,20.85
2019-06-20T09:31:44.323Z,18.60
2019-06-20T09:34:18.845Z,16.12
2019-06-20T09:36:53.648Z,20.15
2019-06-20T09:39:27.290Z,18.85
2019-06-20T09:42:31.929Z,20.15
2019-06-20T09:45:06.448Z,18.50
2019-06-20T09:47:39.944Z,19.70
2019-06-20T09:50:15.464Z,16.90
2019-06-20T09:53:09.018Z,15.88
2019-06-20T09:55:42.412Z,14.68
2019-06-20T09:58:16.698Z,15.38
2019-06-20T10:00:50.873Z,14.45
2019-06-20T10:03:25.657Z,14.05
2019-06-20T10:06:00.167Z,13.88
2019-06-20T10:08:34.418Z,14.45
2019-06-20T10:11:11.464Z,14.65
2019-06-20T10:13:46.464Z,16.42
2019-06-20T10:16:21.249Z,13.85
2019-06-20T10:18:54.352Z,15.25
2019-06-20T10:21:29.306Z,15.05
2019-06-20T10:24:02.056Z,13.93
2019-06-20T10:26:37.817Z,14.45
2019-06-20T10:29:20.827Z,12.90
2019-06-20T10:31:57.292Z,13.35
2019-06-20T10:34:30.962Z,10.90
2019-06-20T10:37:00.527Z,6.58
2019-06-20T10:39:31.001Z,7.35
2019-06-20T10:42:01.592Z,5.87
2019-06-20T10:44:32.353Z,5.78
2019-06-20T10:47:09.095Z,5.37
2019-06-20T10:49:42.874Z,4.75
2019-06-20T10:52:13.026Z,5.10
2019-06-20T10:54:44.892Z,5.92
2019-06-20T10:57:16.216Z,4.58
2019-06-20T10:59:46.700Z,4.85
2019-06-20T11:02:17.626Z,4.35
2019-06-20T11:04:48.210Z,3.75
2019-06-20T11:07:18.813Z,3.75
2019-06-20T11:09:49.517Z,3.45
2019-06-20T11:12:20.232Z,3.85
2019-06-20T11:14:50.908Z,3.70
2019-06-20T11:17:24.048Z,3.80
2019-06-20T11:19:54.561Z,4.33
2019-06-20T11:22:25.008Z,4.80
2019-06-20T11:24:55.589Z,4.10
2019-06-20T11:27:26.212Z,4.08
2019-06-20T11:29:56.781Z,4.10
2019-06-20T11:32:28.015Z,4.85
2019-06-20T11:34:58.677Z,4.33
2019-06-20T11:37:29.283Z,4.67
2019-06-20T11:40:00.113Z,6.03
2019-06-20T11:42:30.787Z,4.62
2019-06-20T11:45:05.870Z,4.00
2019-06-20T11:47:38.193Z,4.15
2019-06-20T11:50:09.411Z,5.03
2019-06-20T11:52:43.869Z,5.12
2019-06-20T11:55:12.555Z,4.85
2019-06-20T11:57:43.349Z,5.55
2019-06-20T12:00:14.702Z,5.20
2019-06-20T12:02:46.169Z,5.10
2019-06-20T12:05:17.174Z,5.00
2019-06-20T12:07:49.780Z,4.95
2019-06-20T12:10:21.657Z,5.20
2019-06-20T12:12:53.283Z,5.20
2019-06-20T12:15:24.010Z,5.58
2019-06-20T12:17:54.817Z,4.40
2019-06-20T12:20:25.658Z,5.55
2019-06-20T12:22:56.222Z,4.58
2019-06-20T12:25:26.929Z,4.80
2019-06-20T12:27:57.616Z,5.25
2019-06-20T12:30:28.283Z,5.70
2019-06-20T12:32:58.910Z,5.97
2019-06-20T12:35:29.533Z,6.40
2019-06-20T12:38:00.165Z,4.97
2019-06-20T12:40:30.711Z,5.53
2019-06-20T12:43:01.525Z,5.53
2019-06-20T12:45:33.110Z,5.50
2019-06-20T12:48:03.834Z,4.28
2019-06-20T12:50:34.335Z,4.17
2019-06-20T12:53:05.710Z,4.17
2019-06-20T12:55:37.239Z,3.80
2019-06-20T12:58:08.598Z,4.30
2019-06-20T13:00:41.638Z,4.53
2019-06-20T13:03:12.354Z,3.85
2019-06-20T13:05:43.299Z,3.42
2019-06-20T13:08:14.062Z,3.42
2019-06-20T13:10:46.168Z,5.83
2019-06-20T13:13:17.212Z,5.75
2019-06-20T13:15:49.015Z,4.10
2019-06-20T13:18:19.860Z,3.80
2019-06-20T13:20:51.015Z,4.15
2019-06-20T13:23:21.433Z,5.83
2019-06-20T13:25:51.859Z,4.45
2019-06-20T13:28:22.373Z,4.05
2019-06-20T13:30:53.173Z,4.37
2019-06-20T13:33:23.742Z,4.10
2019-06-20T13:35:54.491Z,3.60
2019-06-20T13:38:25.274Z,5.42
2019-06-20T13:40:55.931Z,5.33
2019-06-20T13:43:26.444Z,4.40
2019-06-20T13:45:56.889Z,3.72
2019-06-20T13:48:27.641Z,4.55
2019-06-20T13:50:58.163Z,4.78
2019-06-20T13:53:29.433Z,3.45
2019-06-20T13:56:00.935Z,5.30
2019-06-20T13:58:31.393Z,5.22
2019-06-20T14:01:02.032Z,6.15
2019-06-20T14:03:32.958Z,5.28
2019-06-20T14:06:03.641Z,4.83
2019-06-20T14:08:34.219Z,4.17
2019-06-20T14:11:05.631Z,5.35
2019-06-20T14:13:36.141Z,5.40
2019-06-20T14:16:06.825Z,3.90
2019-06-20T14:18:37.430Z,4.72
2019-06-20T14:21:10.876Z,5.45
2019-06-20T14:23:42.866Z,4.58
2019-06-20T14:26:14.029Z,5.47
2019-06-20T14:28:45.987Z,6.33
2019-06-20T14:31:17.814Z,5.08
2019-06-20T14:33:48.616Z,5.30
2019-06-20T14:36:19.292Z,4.55
2019-06-20T14:38:49.892Z,4.78
2019-06-20T14:41:20.457Z,4.45
2019-06-20T14:43:51.909Z,3.33
2019-06-20T14:46:22.533Z,3.80
2019-06-20T14:48:54.202Z,3.67
2019-06-20T14:51:25.519Z,3.15
2019-06-20T14:53:55.973Z,3.92
2019-06-20T14:56:27.493Z,3.83
2019-06-20T14:58:58.123Z,3.20
2019-06-20T15:01:31.480Z,3.30
2019-06-20T15:04:03.100Z,4.17
2019-06-20T15:06:33.779Z,4.72
2019-06-20T15:09:06.113Z,2.50
2019-06-20T15:11:38.502Z,3.35
2019-06-20T15:14:09.190Z,8.23
2019-06-20T15:16:39.852Z,4.03
2019-06-20T15:19:11.693Z,2.60
2019-06-20T15:21:43.037Z,3.27
2019-06-20T15:24:13.730Z,2.35
2019-06-20T15:26:45.824Z,2.55
2019-06-20T15:29:16.796Z,2.30
2019-06-20T15:31:48.976Z,1.75
2019-06-20T15:34:20.270Z,2.52
2019-06-20T15:36:51.460Z,3.17
2019-06-20T15:39:23.685Z,2.02
2019-06-20T15:41:54.364Z,2.65
2019-06-20T15:44:25.179Z,2.58
2019-06-20T15:46:55.843Z,2.85
2019-06-20T15:49:29.743Z,2.37
2019-06-20T15:52:01.907Z,2.47
2019-06-20T15:54:32.671Z,3.83
2019-06-20T15:57:06.084Z,2.25
2019-06-20T15:59:36.761Z,2.33
2019-06-20T16:02:07.431Z,2.85
2019-06-20T16:04:39.997Z,2.10
2019-06-20T16:07:10.626Z,2.15
2019-06-20T16:09:41.653Z,2.10
2019-06-20T16:12:14.801Z,2.00
2019-06-20T16:14:45.517Z,2.90
2019-06-20T16:17:23.671Z,2.27
2019-06-20T16:19:55.470Z,2.45
2019-06-20T16:22:26.797Z,1.85
2019-06-20T16:24:57.464Z,1.92
2019-06-20T16:27:29.084Z,2.10
2019-06-20T16:30:01.851Z,2.10
2019-06-20T16:32:32.535Z,2.77
2019-06-20T16:35:03.096Z,3.42
2019-06-20T16:37:33.662Z,2.60
2019-06-20T16:40:06.073Z,2.42
2019-06-20T16:42:38.590Z,2.58
2019-06-20T16:45:10.072Z,3.62
2019-06-20T16:47:40.719Z,3.30
2019-06-20T16:50:11.526Z,3.58
2019-06-20T16:52:42.328Z,2.60
2019-06-20T16:55:13.313Z,2.92
2019-06-20T16:57:44.806Z,3.75
2019-06-20T17:00:17.599Z,4.60
2019-06-20T17:02:48.355Z,5.20
2019-06-20T17:05:19.409Z,5.87
2019-06-20T17:07:50.086Z,4.85
2019-06-20T17:10:21.443Z,5.95
2019-06-20T17:12:52.182Z,6.17
2019-06-20T17:15:23.652Z,7.25
2019-06-20T17:17:55.267Z,8.75
2019-06-20T17:20:27.958Z,9.90
2019-06-20T17:22:59.140Z,8.18
2019-06-20T17:25:29.835Z,7.95
2019-06-20T17:28:00.535Z,8.63
2019-06-20T17:31:48.274Z,9.98
2019-06-20T17:34:18.878Z,12.58
2019-06-20T17:36:49.831Z,14.40
2019-06-20T17:39:20.525Z,13.68
2019-06-20T17:41:55.172Z,16.70
2019-06-20T17:44:23.282Z,15.55
2019-06-20T17:46:54.119Z,17.10
2019-06-20T17:49:25.734Z,14.30
2019-06-20T17:51:56.514Z,13.88
2019-06-20T17:54:27.250Z,13.32
2019-06-20T17:56:57.809Z,12.93
2019-06-20T17:59:28.934Z,15.03
2019-06-20T18:01:59.951Z,16.27
2019-06-20T18:04:30.722Z,16.27
2019-06-20T18:07:01.393Z,15.58
2019-06-20T18:09:32.162Z,16.25
2019-06-20T18:12:02.988Z,18.07
2019-06-20T18:14:34.292Z,14.00
2019-06-20T18:17:04.971Z,12.10
2019-06-20T18:19:36.093Z,13.30
2019-06-20T18:22:06.888Z,14.30
2019-06-20T18:24:37.653Z,13.43
2019-06-20T18:27:08.569Z,15.75
2019-06-20T18:29:39.429Z,12.60
2019-06-20T18:32:10.048Z,12.90
2019-06-20T18:34:40.652Z,14.60
2019-06-20T18:37:12.680Z,17.05
2019-06-20T18:39:43.262Z,18.00
2019-06-20T18:42:13.931Z,17.35
2019-06-20T18:44:44.480Z,20.37
2019-06-20T18:47:15.227Z,19.87
2019-06-20T18:49:46.470Z,17.00
2019-06-20T18:52:17.198Z,16.57
2019-06-20T18:54:47.894Z,17.62
2019-06-20T18:57:22.057Z,19.45
2019-06-20T18:59:52.635Z,18.48
2019-06-20T19:02:24.022Z,20.23
2019-06-20T19:04:54.584Z,18.67
2019-06-20T19:07:25.096Z,19.50
2019-06-20T19:09:55.719Z,18.57
2019-06-20T19:12:26.503Z,17.87
2019-06-20T19:14:57.926Z,16.70
2019-06-20T19:17:28.983Z,16.87
2019-06-20T19:19:59.817Z,16.90
2019-06-20T19:22:30.639Z,15.72
2019-06-20T19:25:03.903Z,16.73
2019-06-20T19:27:45.703Z,15.35
2019-06-20T19:30:06.715Z,12.58
2019-06-20T19:32:37.942Z,10.63
2019-06-20T19:35:10.288Z,11.50
2019-06-20T19:37:41.361Z,11.30
2019-06-20T19:40:14.565Z,13.75
2019-06-20T19:42:45.456Z,12.15
2019-06-20T19:45:17.212Z,11.28
2019-06-20T19:48:22.227Z,10.25
2019-06-20T19:50:52.855Z,15.60
2019-06-20T19:53:24.669Z,12.75
2019-06-20T19:55:57.791Z,11.95
2019-06-20T19:58:29.997Z,12.43
2019-06-20T20:01:00.559Z,11.43
2019-06-20T20:03:33.049Z,13.15
2019-06-20T20:06:03.718Z,13.78
2019-06-20T20:08:34.702Z,12.35
2019-06-20T20:11:06.241Z,14.93
2019-06-20T20:13:36.907Z,12.82
2019-06-20T20:16:09.356Z,14.20
2019-06-20T20:18:40.722Z,14.28
2019-06-20T20:21:11.497Z,16.67
2019-06-20T20:23:42.306Z,16.37
2019-06-20T20:26:13.104Z,20.02
2019-06-20T20:28:45.544Z,18.45
2019-06-20T20:31:17.541Z,18.65
2019-06-20T20:33:55.464Z,17.15
2019-06-20T20:36:26.690Z,16.17
2019-06-20T20:38:57.716Z,18.02
2019-06-20T20:41:28.450Z,17.07
2019-06-20T20:43:59.174Z,15.98
2019-06-20T20:46:30.659Z,22.90
2019-06-20T20:49:01.570Z,20.02
2019-06-20T20:51:33.943Z,19.12
2019-06-20T20:54:06.101Z,17.27
2019-06-20T20:56:36.731Z,17.27
2019-06-20T20:59:08.794Z,13.95
2019-06-20T21:01:39.307Z,17.90
2019-06-20T21:04:11.108Z,14.93
2019-06-20T21:06:42.261Z,16.65
2019-06-20T21:09:14.489Z,17.98
2019-06-20T21:11:46.655Z,18.90
2019-06-20T21:14:17.325Z,17.62
2019-06-20T21:16:48.133Z,15.68
2019-06-20T21:19:18.733Z,15.90
2019-06-20T21:21:50.044Z,15.10
2019-06-20T21:24:22.614Z,16.37
2019-06-20T21:26:53.765Z,12.07
2019-06-20T21:29:24.483Z,16.25
2019-06-20T21:31:54.970Z,13.50
2019-06-20T21:34:27.751Z,14.07
2019-06-20T21:36:59.326Z,15.68
2019-06-20T21:39:30.275Z,13.22
2019-06-20T21:42:00.841Z,12.10
2019-06-20T21:44:32.658Z,16.00
2019-06-20T21:47:03.574Z,15.18
2019-06-20T21:49:34.225Z,14.50
2019-06-20T21:52:04.850Z,14.63
2019-06-20T21:54:37.104Z,14.83
2019-06-20T21:57:10.021Z,14.28
2019-06-20T21:59:41.057Z,17.50
2019-06-20T22:02:13.157Z,13.58
2019-06-20T22:04:54.529Z,14.47
2019-06-20T22:07:20.160Z,18.55
2019-06-20T22:09:52.324Z,15.18
2019-06-20T22:12:23.278Z,13.95
2019-06-20T22:14:55.343Z,15.60
2019-06-20T22:17:28.311Z,15.13
2019-06-20T22:19:59.015Z,18.15
2019-06-20T22:22:31.223Z,21.30
2019-06-20T22:25:03.782Z,11.50
2019-06-20T22:27:34.572Z,10.93
2019-06-20T22:30:07.572Z,13.95
2019-06-20T22:32:38.291Z,61.05
2019-06-20T22:35:09.453Z,16.60
2019-06-20T22:37:40.049Z,16.62
2019-06-20T22:40:11.445Z,16.42
2019-06-20T22:42:44.126Z,15.13
2019-06-20T22:45:18.504Z,15.58
2019-06-20T22:47:49.096Z,14.63
2019-06-20T22:50:20.069Z,21.25
2019-06-20T22:52:50.831Z,17.90
2019-06-20T22:55:22.361Z,15.65
2019-06-20T22:57:54.710Z,14.23
2019-06-20T23:00:26.440Z,12.05
2019-06-20T23:02:58.322Z,15.25
2019-06-20T23:05:33.952Z,15.45
2019-06-20T23:08:04.820Z,13.58
2019-06-20T23:10:35.526Z,10.82
2019-06-20T23:13:06.511Z,15.08
2019-06-20T23:15:38.099Z,16.30
2019-06-20T23:18:09.638Z,13.68
2019-06-20T23:20:42.522Z,16.48
2019-06-20T23:26:00.986Z,16.00
2019-06-20T23:28:31.742Z,14.53
2019-06-20T23:31:02.414Z,16.20
2019-06-20T23:33:33.064Z,13.03
2019-06-20T23:36:03.745Z,15.72
2019-06-20T23:38:34.809Z,14.03
2019-06-20T23:41:05.532Z,20.05
2019-06-20T23:43:37.122Z,13.28
2019-06-20T23:46:07.940Z,12.10
2019-06-20T23:48:38.441Z,13.03
2019-06-20T23:51:24.516Z,12.75
2019-06-20T23:53:41.923Z,11.88
2019-06-20T23:56:12.564Z,17.65
2019-06-20T23:58:43.031Z,17.00
